Historyczne dane pomiarowe

Dodano dane terminowe – wersja testowa.

Dane z okresu 1951-2019

Wersja bazy: 1.34 [2019-03-16, lista zmian], aktualizacja planowana na 2019-04-15

Dane meteo z obszaru Polski uzyskane na podstawie danych udostępnionych przez Instytut Meteorologii i Gospodarki Wodnej – Państwowy Instytut Badawczy.

 

Wybierz Datę:    

       

TemperaturaWilgotnośćWiatrCiśnienieOpadyŚniegCzas trwania zjawisk
 Stacja t tx tn tng RH VA  wxwx mslp ppp RRR   cm mm wxwxwxwxwxwxwx
1954-04-17 3.7 6.3 0.5- 94.0- 6.7 0.7---- 0.0------------
1954-04-18 5.2 7.7 2.1- 87.5- 5.0 1.0---- 2.4------------
1954-04-19 6.8 11.3 1.6- 97.3- 5.3 3.0---- 1.0------------
1954-04-20 12.0 18.9 5.5- 71.0- 1.0 3.0---- 0.0------------
1954-04-21 10.3 16.8 2.6- 66.3- 0.3 1.3---- 0.0------------
1954-04-22 3.9 9.9 0.6- 57.5- 0.0 5.7---- 0.0------------
1954-04-23 1.9 8.9 -4.0- 60.3- 0.0 1.0---- 0.0------------
1954-04-24 2.6 7.3 -1.3- 66.0- 4.7 3.7---- 0.0------------
1954-04-25 1.8 5.9 -2.9- 76.8- 1.0 1.7---- 0.0------------
1954-04-26 0.2 5.1 -4.2- 75.3- 1.3 3.7---- 0.0------------
1954-04-27 2.3 6.9 -6.2- 72.5- 0.3 2.0---- 0.0------------
1954-04-28 4.9 10.7 -1.7- 60.8- 3.3 1.0---- 0.0------------
1954-04-29 7.6 13.3 -1.4- 43.0- 1.0 3.7---- 0.0------------
1954-04-30 10.6 17.5 -0.1- 59.0- 1.3 1.0---- 5.5------------
1954-05-01 11.5 16.1 7.5- 86.0- 7.3 3.0---- 0.4------------
1954-05-02 9.6 12.1 6.4- 86.8- 6.7 1.3---- 0.0------------
1954-05-03 14.0 19.7 0.6- 52.3- 0.3 1.7---- 0.0------------
1954-05-04 17.8 24.7 6.5- 53.8- 0.0 1.3---- 0.0------------
1954-05-05 15.6 23.7 12.4- 66.3- 3.3 3.0---- 0.0------------
1954-05-06 20.4 29.5 7.0- 47.8- 0.7 3.7---- 0.0------------
1954-05-07 21.4 29.5 11.2- 45.3- 0.0 2.3---- 0.0------------
1954-05-08 19.0 26.4 13.0- 56.5- 0.0 2.0---- 0.0------------
1954-05-09 19.4 26.8 10.0- 44.0- 5.7 2.3---- 0.0------------
1954-05-10 17.6 26.5 11.6- 62.5- 1.0 2.7---- 0.0------------
1954-05-11 14.2 20.1 8.6- 49.0- 0.0 3.0---- 0.0------------
1954-05-12 10.6 15.3 5.4- 65.3- 2.3 5.7---- 0.0------------
1954-05-13 5.2 9.5 2.6- 60.5- 4.3 5.0---- 0.0------------
1954-05-14 6.2 10.7 1.6- 56.0- 1.0 2.3---- 0.0------------
1954-05-15 6.8 13.6 -4.7- 47.5- 0.0 0.3---- 0.0------------
1954-05-16 12.8 17.8 -3.8- 35.0- 0.0 2.3---- 0.0------------
159.4 ms

 

Źródłem pochodzenia danych jest Instytut Meteorologii i Gospodarki Wodnej – Państwowy Instytut Badawczy. Dane Instytutu Meteorologii i Gospodarki Wodnej – Państwowego Instytutu Badawczego zostały przetworzone.

Dane źródłowe można odnaleźć na stronie https://dane.imgw.pl